createdAt,value
2023-01-10T00:00:41.093Z,0
2023-01-10T00:01:42.034Z,0
2023-01-10T00:02:43.024Z,0
2023-01-10T00:03:43.314Z,0
2023-01-10T00:04:44.597Z,0
2023-01-10T00:05:44.536Z,0
2023-01-10T00:06:46.030Z,0
2023-01-10T00:07:45.364Z,0
2023-01-10T00:08:46.566Z,0
2023-01-10T00:09:46.779Z,0
2023-01-10T00:10:47.004Z,0
2023-01-10T00:11:46.925Z,0
2023-01-10T00:12:47.391Z,0
2023-01-10T00:13:48.588Z,0
2023-01-10T00:14:49.572Z,0
2023-01-10T00:15:49.599Z,0
2023-01-10T00:16:50.804Z,0
2023-01-10T00:17:51.309Z,0
2023-01-10T00:18:51.288Z,0
2023-01-10T00:19:52.204Z,0
2023-01-10T00:20:52.425Z,0
2023-01-10T00:21:53.367Z,0
2023-01-10T00:22:53.694Z,0
2023-01-10T00:23:54.035Z,0
2023-01-10T00:24:54.972Z,0
2023-01-10T00:25:55.182Z,0
2023-01-10T00:26:55.674Z,0
2023-01-10T00:27:55.935Z,0
2023-01-10T00:28:56.004Z,0
2023-01-10T00:29:57.279Z,0
2023-01-10T00:30:57.881Z,0
2023-01-10T00:31:57.819Z,0
2023-01-10T00:32:58.824Z,0
2023-01-10T00:33:59.047Z,0
2023-01-10T00:34:58.989Z,0
2023-01-10T00:35:59.631Z,0
2023-01-10T00:37:00.589Z,0
2023-01-10T00:38:02.069Z,0
2023-01-10T00:39:02.563Z,0
2023-01-10T00:40:02.214Z,0
2023-01-10T00:41:03.713Z,0
2023-01-10T00:42:03.939Z,0
2023-01-10T00:43:03.404Z,0
2023-01-10T00:44:04.905Z,0
2023-01-10T00:45:05.440Z,0
2023-01-10T00:46:05.878Z,0
2023-01-10T00:47:06.115Z,0
2023-01-10T00:48:06.614Z,0
2023-01-10T00:49:06.533Z,0
2023-01-10T00:50:07.210Z,0
2023-01-10T00:51:08.145Z,0
2023-01-10T00:52:09.121Z,0
2023-01-10T00:53:10.132Z,0
2023-01-10T00:54:10.315Z,0
2023-01-10T00:55:10.526Z,0
2023-01-10T00:56:10.451Z,0
2023-01-10T00:57:11.703Z,0
2023-01-10T00:58:11.915Z,0
2023-01-10T00:59:12.134Z,0
2023-01-10T01:00:13.376Z,0
2023-01-10T01:01:14.433Z,0
2023-01-10T01:02:13.955Z,0
2023-01-10T01:03:14.740Z,0
2023-01-10T01:04:14.974Z,0
2023-01-10T01:05:14.910Z,0
2023-01-10T01:06:16.124Z,0
2023-01-10T01:07:16.778Z,0
2023-01-10T01:08:16.981Z,0
2023-01-10T01:09:17.629Z,0
2023-01-10T01:10:18.853Z,0
2023-01-10T01:11:19.062Z,0
2023-01-10T01:12:19.005Z,0
2023-01-10T01:13:20.009Z,0
2023-01-10T01:14:20.653Z,0
2023-01-10T01:15:21.962Z,0
2023-01-10T01:16:22.218Z,0
2023-01-10T01:17:22.150Z,0
2023-01-10T01:18:23.096Z,0
2023-01-10T01:19:24.326Z,0
2023-01-10T01:20:25.255Z,0
2023-01-10T01:21:25.207Z,0
2023-01-10T01:22:26.141Z,0
2023-01-10T01:23:27.162Z,0
2023-01-10T01:24:28.672Z,0
2023-01-10T01:25:28.882Z,0
2023-01-10T01:26:29.076Z,0
2023-01-10T01:27:30.051Z,0
2023-01-10T01:28:30.557Z,0
2023-01-10T01:29:43.174Z,0
2023-01-10T01:30:32.199Z,0
2023-01-10T01:31:33.289Z,0
2023-01-10T01:32:33.288Z,0
2023-01-10T01:33:33.631Z,0
2023-01-10T01:34:33.846Z,0
2023-01-10T01:35:34.493Z,0
2023-01-10T01:36:35.710Z,0
2023-01-10T01:37:35.357Z,0
2023-01-10T01:38:36.270Z,0
2023-01-10T01:39:36.907Z,0
2023-01-10T01:40:37.524Z,0
2023-01-10T01:41:37.895Z,0
2023-01-10T01:42:39.419Z,0
2023-01-10T01:43:39.887Z,0
2023-01-10T01:44:40.093Z,0
2023-01-10T01:45:40.621Z,0
2023-01-10T01:46:40.840Z,0
2023-01-10T01:47:41.356Z,0
2023-01-10T01:48:41.590Z,0
2023-01-10T01:49:42.529Z,0
2023-01-10T01:50:42.139Z,0
2023-01-10T01:51:42.488Z,0
2023-01-10T01:52:43.442Z,0
2023-01-10T01:53:44.197Z,0
2023-01-10T01:54:45.110Z,0
2023-01-10T01:55:46.043Z,0
2023-01-10T01:56:46.964Z,0
2023-01-10T01:57:48.048Z,0
2023-01-10T01:58:48.265Z,0
2023-01-10T01:59:48.753Z,0
2023-01-10T02:00:49.145Z,0
2023-01-10T02:01:49.747Z,0
2023-01-10T02:03:06.504Z,0
2023-01-10T02:03:55.052Z,0
2023-01-10T02:04:54.701Z,0
2023-01-10T02:05:55.913Z,0
2023-01-10T02:06:57.139Z,0
2023-01-10T02:07:57.384Z,0
2023-01-10T02:08:57.883Z,0
2023-01-10T02:09:57.524Z,0
2023-01-10T02:10:59.029Z,0
2023-01-10T02:11:58.677Z,0
2023-01-10T02:12:59.308Z,0
2023-01-10T02:14:00.882Z,0
2023-01-10T02:15:00.817Z,0
2023-01-10T02:16:01.792Z,0
2023-01-10T02:17:03.044Z,0
2023-01-10T02:18:02.688Z,0
2023-01-10T02:19:03.653Z,0
2023-01-10T02:20:03.889Z,0
2023-01-10T02:21:04.376Z,0
2023-01-10T02:22:04.307Z,0
2023-01-10T02:23:04.246Z,0
2023-01-10T02:24:05.271Z,0
2023-01-10T02:25:06.452Z,0
2023-01-10T02:26:07.095Z,0
2023-01-10T02:27:08.297Z,0
2023-01-10T02:28:08.568Z,0
2023-01-10T02:29:08.780Z,0
2023-01-10T02:30:08.985Z,0
2023-01-10T02:31:09.812Z,0
2023-01-10T02:32:09.724Z,0
2023-01-10T02:33:21.571Z,0
2023-01-10T02:34:08.989Z,0
2023-01-10T02:35:09.740Z,0
2023-01-10T02:36:10.933Z,0
2023-01-10T02:37:10.846Z,0
2023-01-10T02:38:11.515Z,0
2023-01-10T02:39:13.041Z,0
2023-01-10T02:40:13.234Z,0
2023-01-10T02:41:13.629Z,0
2023-01-10T02:42:14.827Z,0
2023-01-10T02:43:15.091Z,0
2023-01-10T02:44:17.320Z,0
2023-01-10T02:45:15.364Z,0
2023-01-10T02:46:16.598Z,0
2023-01-10T02:47:15.687Z,0
2023-01-10T02:48:16.605Z,0
2023-01-10T02:49:17.819Z,0
2023-01-10T02:50:17.747Z,0
2023-01-10T02:51:18.953Z,0
2023-01-10T02:52:19.581Z,0
2023-01-10T02:53:20.553Z,0
2023-01-10T02:54:20.839Z,0
2023-01-10T02:55:20.748Z,0
2023-01-10T02:56:21.944Z,0
2023-01-10T02:57:22.164Z,0
2023-01-10T02:58:22.667Z,0
2023-01-10T02:59:22.868Z,0
2023-01-10T03:00:23.063Z,0
2023-01-10T03:01:24.779Z,0
2023-01-10T03:02:25.180Z,0
2023-01-10T03:03:25.098Z,0
2023-01-10T03:04:26.215Z,0
2023-01-10T03:05:27.604Z,0
2023-01-10T03:06:27.244Z,0
2023-01-10T03:07:27.867Z,0
2023-01-10T03:08:28.250Z,0
2023-01-10T03:09:29.462Z,0
2023-01-10T03:10:29.655Z,0
2023-01-10T03:11:30.140Z,0
2023-01-10T03:12:30.082Z,0
2023-01-10T03:13:31.020Z,0
2023-01-10T03:14:31.757Z,0
2023-01-10T03:15:31.969Z,0
2023-01-10T03:16:32.705Z,0
2023-01-10T03:17:32.619Z,0
2023-01-10T03:18:32.808Z,0
2023-01-10T03:19:33.026Z,0
2023-01-10T03:20:33.286Z,0
2023-01-10T03:21:33.507Z,0
2023-01-10T03:22:32.847Z,0
2023-01-10T03:23:34.349Z,0
2023-01-10T03:24:34.644Z,0
2023-01-10T03:25:34.845Z,0
2023-01-10T03:26:35.785Z,0
2023-01-10T03:27:36.695Z,0
2023-01-10T03:28:37.915Z,0
2023-01-10T03:29:38.138Z,0
2023-01-10T03:30:38.343Z,0
2023-01-10T03:31:39.983Z,0
2023-01-10T03:32:39.918Z,0
2023-01-10T03:33:40.562Z,0
2023-01-10T03:34:41.594Z,0
2023-01-10T03:35:42.096Z,0
2023-01-10T03:36:42.616Z,0
2023-01-10T03:37:42.808Z,0
2023-01-10T03:38:43.032Z,0
2023-01-10T03:39:43.234Z,0
2023-01-10T03:40:43.774Z,0
2023-01-10T03:41:43.717Z,0
2023-01-10T03:42:43.937Z,0
2023-01-10T03:43:44.157Z,0
2023-01-10T03:44:44.762Z,0
2023-01-10T03:45:44.708Z,0
2023-01-10T03:46:45.179Z,0
2023-01-10T03:47:44.853Z,0
2023-01-10T03:48:45.760Z,0
2023-01-10T03:49:46.948Z,0
2023-01-10T03:50:47.882Z,0
2023-01-10T03:51:48.803Z,0
2023-01-10T03:52:48.703Z,0
2023-01-10T03:53:50.211Z,0
2023-01-10T03:54:50.211Z,0
2023-01-10T03:55:50.123Z,0
2023-01-10T03:56:50.743Z,0
2023-01-10T03:57:51.663Z,0
2023-01-10T03:58:51.880Z,0
2023-01-10T03:59:51.541Z,0
2023-01-10T04:00:52.462Z,0
2023-01-10T04:01:53.894Z,0
2023-01-10T04:02:53.138Z,0
2023-01-10T04:03:53.190Z,0
2023-01-10T04:04:53.598Z,0
2023-01-10T04:05:54.063Z,0
2023-01-10T04:06:54.008Z,0
2023-01-10T04:07:53.951Z,0
2023-01-10T04:08:54.915Z,0
2023-01-10T04:09:55.122Z,0
2023-01-10T04:10:55.314Z,0
2023-01-10T04:11:55.829Z,0
2023-01-10T04:12:55.769Z,0
2023-01-10T04:13:56.983Z,0
2023-01-10T04:14:58.283Z,0
2023-01-10T04:15:58.512Z,0
2023-01-10T04:16:58.505Z,0
2023-01-10T04:18:00.027Z,0
2023-01-10T04:19:00.252Z,0
2023-01-10T04:20:01.197Z,0
2023-01-10T04:21:03.409Z,0
2023-01-10T04:22:01.011Z,0
2023-01-10T04:23:02.304Z,0
2023-01-10T04:24:02.534Z,0
2023-01-10T04:25:03.010Z,0
2023-01-10T04:26:03.206Z,0
2023-01-10T04:27:04.134Z,0
2023-01-10T04:28:04.629Z,0
2023-01-10T04:29:04.868Z,0
2023-01-10T04:30:06.071Z,0
2023-01-10T04:31:05.988Z,0
2023-01-10T04:32:07.554Z,0
2023-01-10T04:33:07.507Z,0
2023-01-10T04:34:09.016Z,0
2023-01-10T04:35:09.025Z,0
2023-01-10T04:36:09.988Z,0
2023-01-10T04:37:09.907Z,0
2023-01-10T04:38:10.829Z,0
2023-01-10T04:39:12.386Z,0
2023-01-10T04:40:12.588Z,0
2023-01-10T04:41:12.520Z,0
2023-01-10T04:42:13.436Z,0
2023-01-10T04:43:14.387Z,0
2023-01-10T04:44:15.935Z,0
2023-01-10T04:45:16.270Z,0
2023-01-10T04:46:16.691Z,0
2023-01-10T04:47:17.225Z,0
2023-01-10T04:48:16.892Z,0
2023-01-10T04:49:17.536Z,0
2023-01-10T04:50:19.043Z,0
2023-01-10T04:51:19.015Z,0
2023-01-10T04:52:20.218Z,0
2023-01-10T04:53:21.148Z,0
2023-01-10T04:54:21.101Z,0
2023-01-10T04:55:22.682Z,0
2023-01-10T04:56:23.208Z,0
2023-01-10T04:57:23.125Z,0
2023-01-10T04:58:24.333Z,0
2023-01-10T04:59:24.848Z,0
2023-01-10T05:00:25.052Z,0
2023-01-10T05:01:25.767Z,0
2023-01-10T05:02:26.509Z,0
2023-01-10T05:03:27.062Z,0
2023-01-10T05:04:27.027Z,0
2023-01-10T05:05:27.635Z,0
2023-01-10T05:06:27.866Z,0
2023-01-10T05:07:28.092Z,0
2023-01-10T05:08:28.736Z,0
2023-01-10T05:09:29.980Z,0
2023-01-10T05:10:29.876Z,0
2023-01-10T05:11:30.516Z,0
2023-01-10T05:12:31.706Z,0
2023-01-10T05:13:32.065Z,0
2023-01-10T05:14:33.022Z,0
2023-01-10T05:15:34.079Z,0
2023-01-10T05:16:34.524Z,0
2023-01-10T05:17:34.794Z,0
2023-01-10T05:18:35.427Z,0
2023-01-10T05:19:36.663Z,0
2023-01-10T05:20:37.864Z,0
2023-01-10T05:21:37.863Z,0
2023-01-10T05:22:37.498Z,0
2023-01-10T05:23:38.456Z,0
2023-01-10T05:24:39.682Z,0
2023-01-10T05:25:39.809Z,0
2023-01-10T05:26:41.017Z,0
2023-01-10T05:27:41.973Z,0
2023-01-10T05:28:42.478Z,0
2023-01-10T05:29:42.407Z,0
2023-01-10T05:30:43.334Z,0
2023-01-10T05:31:44.360Z,0
2023-01-10T05:32:45.952Z,0
2023-01-10T05:33:45.862Z,0
2023-01-10T05:34:46.525Z,0
2023-01-10T05:35:47.830Z,0
2023-01-10T05:36:48.049Z,0
2023-01-10T05:37:49.373Z,0
2023-01-10T05:38:49.573Z,0
2023-01-10T05:39:50.529Z,0
2023-01-10T05:40:51.056Z,0
2023-01-10T05:41:50.974Z,0
2023-01-10T05:42:51.907Z,0
2023-01-10T05:43:52.612Z,0
2023-01-10T05:44:53.837Z,0
2023-01-10T05:45:54.474Z,0
2023-01-10T05:46:54.441Z,0
2023-01-10T05:47:54.685Z,0
2023-01-10T05:48:54.608Z,0
2023-01-10T05:49:55.830Z,0
2023-01-10T05:50:56.320Z,0
2023-01-10T05:51:56.835Z,0
2023-01-10T05:52:57.034Z,0
2023-01-10T05:54:01.170Z,0
2023-01-10T05:54:58.122Z,0
2023-01-10T05:55:58.574Z,0
2023-01-10T05:57:00.084Z,0
2023-01-10T05:57:59.991Z,0
2023-01-10T05:59:33.469Z,0
2023-01-10T06:00:01.114Z,0
2023-01-10T06:01:02.342Z,0
2023-01-10T06:02:02.496Z,0
2023-01-10T06:03:03.453Z,0
2023-01-10T06:04:03.403Z,0
2023-01-10T06:05:04.595Z,0
2023-01-10T06:06:05.801Z,0
2023-01-10T06:07:06.323Z,0
2023-01-10T06:08:06.856Z,0
2023-01-10T06:09:06.765Z,0
2023-01-10T06:10:08.028Z,0
2023-01-10T06:11:08.518Z,0
2023-01-10T06:12:08.457Z,0
2023-01-10T06:13:09.120Z,0
2023-01-10T06:14:09.782Z,0
2023-01-10T06:15:10.413Z,0
2023-01-10T06:16:11.818Z,0
2023-01-10T06:17:11.450Z,0
2023-01-10T06:18:12.807Z,0
2023-01-10T06:19:13.304Z,0
2023-01-10T06:20:12.937Z,0
2023-01-10T06:21:14.150Z,0
2023-01-10T06:22:14.671Z,0
2023-01-10T06:23:14.884Z,0
2023-01-10T06:24:14.811Z,0
2023-01-10T06:25:18.854Z,0
2023-01-10T06:26:16.227Z,0
2023-01-10T06:27:16.150Z,0
2023-01-10T06:28:17.077Z,0
2023-01-10T06:29:17.559Z,0
2023-01-10T06:30:16.916Z,0
2023-01-10T06:31:20.383Z,0
2023-01-10T06:32:19.199Z,0
2023-01-10T06:33:19.163Z,0
2023-01-10T06:34:20.064Z,0
2023-01-10T06:35:20.703Z,0
2023-01-10T06:36:21.411Z,0
2023-01-10T06:37:25.536Z,0
2023-01-10T06:38:23.027Z,0
2023-01-10T06:39:23.220Z,0
2023-01-10T06:40:23.152Z,0
2023-01-10T06:41:24.858Z,0
2023-01-10T06:42:25.071Z,0
2023-01-10T06:43:26.026Z,0
2023-01-10T06:44:27.003Z,0
2023-01-10T06:45:28.251Z,0
2023-01-10T06:46:29.349Z,0
2023-01-10T06:47:29.547Z,0
2023-01-10T06:48:30.522Z,0
2023-01-10T06:49:30.447Z,0
2023-01-10T06:50:31.122Z,0
2023-01-10T06:51:32.322Z,0
2023-01-10T06:52:32.575Z,0
2023-01-10T06:53:33.786Z,0
2023-01-10T06:54:33.728Z,0
2023-01-10T06:55:34.056Z,0
2023-01-10T06:56:34.592Z,0
2023-01-10T06:57:35.100Z,0
2023-01-10T06:58:35.341Z,0
2023-01-10T06:59:35.840Z,0
2023-01-10T07:00:36.495Z,0
2023-01-10T07:01:37.634Z,0
2023-01-10T07:02:36.966Z,0
2023-01-10T07:03:37.733Z,0
2023-01-10T07:04:37.968Z,0
2023-01-10T07:05:38.885Z,0
2023-01-10T07:06:38.699Z,0
2023-01-10T07:07:39.987Z,0
2023-01-10T07:08:39.975Z,0
2023-01-10T07:09:40.637Z,0
2023-01-10T07:10:41.296Z,0
2023-01-10T07:11:42.201Z,0
2023-01-10T07:12:43.713Z,0
2023-01-10T07:13:43.105Z,0
2023-01-10T07:14:44.421Z,0
2023-01-10T07:15:44.422Z,0
2023-01-10T07:16:44.931Z,0
2023-01-10T07:17:46.138Z,0
2023-01-10T07:18:46.133Z,0
2023-01-10T07:19:46.654Z,0
2023-01-10T07:20:46.590Z,0
2023-01-10T07:21:47.815Z,0
2023-01-10T07:22:48.019Z,0
2023-01-10T07:23:48.283Z,0
2023-01-10T07:24:48.192Z,0
2023-01-10T07:25:49.152Z,0
2023-01-10T07:26:49.184Z,0
2023-01-10T07:27:49.819Z,0
2023-01-10T07:28:51.051Z,0
2023-01-10T07:29:51.979Z,0
2023-01-10T07:30:52.504Z,0
2023-01-10T07:31:52.895Z,0
2023-01-10T07:32:53.385Z,0
2023-01-10T07:33:53.928Z,0
2023-01-10T07:34:54.433Z,0
2023-01-10T07:35:54.631Z,0
2023-01-10T07:36:56.171Z,5.63
2023-01-10T07:37:56.428Z,5.63
2023-01-10T07:38:56.371Z,0
2023-01-10T07:39:57.291Z,5.63
2023-01-10T07:40:57.961Z,5.63
2023-01-10T07:41:59.197Z,5.63
2023-01-10T07:43:00.110Z,5.63
2023-01-10T07:44:00.625Z,5.63
2023-01-10T07:45:00.836Z,5.63
2023-01-10T07:46:01.044Z,5.63
2023-01-10T07:47:01.031Z,5.63
2023-01-10T07:48:02.273Z,5.63
2023-01-10T07:49:02.814Z,5.63
2023-01-10T07:50:03.020Z,5.63
2023-01-10T07:51:03.981Z,5.63
2023-01-10T07:52:04.176Z,5.63
2023-01-10T07:53:04.702Z,5.63
2023-01-10T07:54:04.937Z,5.63
2023-01-10T07:55:05.468Z,5.63
2023-01-10T07:56:05.992Z,5.63
2023-01-10T07:57:05.694Z,5.63
2023-01-10T07:58:06.914Z,5.63
2023-01-10T07:59:07.152Z,5.63
2023-01-10T08:00:08.369Z,5.63
2023-01-10T08:01:09.286Z,5.63
2023-01-10T08:02:09.212Z,11.25
2023-01-10T08:03:10.559Z,11.25
2023-01-10T08:04:11.024Z,11.25
2023-01-10T08:05:10.946Z,11.25
2023-01-10T08:06:10.868Z,11.25
2023-01-10T08:07:12.499Z,11.25
2023-01-10T08:08:12.731Z,11.25
2023-01-10T08:09:13.674Z,11.25
2023-01-10T08:10:14.194Z,11.25
2023-01-10T08:11:14.447Z,11.25
2023-01-10T08:12:14.952Z,5.63
2023-01-10T08:13:30.234Z,5.63
2023-01-10T08:14:15.532Z,5.63
2023-01-10T08:15:15.828Z,5.63
2023-01-10T08:16:17.880Z,5.63
2023-01-10T08:17:17.476Z,5.63
2023-01-10T08:18:17.951Z,5.63
2023-01-10T08:19:18.555Z,5.63
2023-01-10T08:20:18.491Z,5.63
2023-01-10T08:21:18.568Z,5.63
2023-01-10T08:22:19.494Z,5.63
2023-01-10T08:23:20.756Z,5.63
2023-01-10T08:24:20.968Z,5.63
2023-01-10T08:25:20.948Z,5.63
2023-01-10T08:26:21.915Z,5.63
2023-01-10T08:27:22.948Z,5.63
2023-01-10T08:28:24.183Z,5.63
2023-01-10T08:29:24.685Z,5.63
2023-01-10T08:30:24.764Z,5.63
2023-01-10T08:31:25.542Z,5.63
2023-01-10T08:32:25.800Z,5.63
2023-01-10T08:33:25.472Z,5.63
2023-01-10T08:34:27.040Z,11.25
2023-01-10T08:35:27.281Z,11.25
2023-01-10T08:36:27.529Z,5.63
2023-01-10T08:37:27.574Z,11.25
2023-01-10T08:38:28.513Z,11.25
2023-01-10T08:39:29.171Z,16.88
2023-01-10T08:40:30.696Z,16.88
2023-01-10T08:41:30.657Z,16.88
2023-01-10T08:42:31.895Z,16.88
2023-01-10T08:43:32.102Z,16.88
2023-01-10T08:44:33.068Z,16.88
2023-01-10T08:45:33.640Z,16.88
2023-01-10T08:46:34.262Z,16.88
2023-01-10T08:47:34.506Z,16.88
2023-01-10T08:48:34.735Z,16.88
2023-01-10T08:49:36.006Z,16.88
2023-01-10T08:50:36.242Z,16.88
2023-01-10T08:51:37.469Z,16.88
2023-01-10T08:52:36.877Z,16.88
2023-01-10T08:53:38.409Z,22.5
2023-01-10T08:54:38.663Z,22.5
2023-01-10T08:55:38.925Z,22.5
2023-01-10T08:56:39.534Z,22.5
2023-01-10T08:57:39.811Z,22.5
2023-01-10T08:58:40.381Z,22.5
2023-01-10T08:59:40.590Z,22.5
2023-01-10T09:00:40.830Z,22.5
2023-01-10T09:01:42.059Z,22.5
2023-01-10T09:02:41.666Z,22.5
2023-01-10T09:03:41.335Z,22.5
2023-01-10T09:04:44.593Z,22.5
2023-01-10T09:05:44.011Z,22.5
2023-01-10T09:06:42.951Z,22.5
2023-01-10T09:07:44.556Z,22.5
2023-01-10T09:08:44.808Z,28.13
2023-01-10T09:09:45.308Z,28.13
2023-01-10T09:10:45.818Z,28.13
2023-01-10T09:11:47.127Z,22.5
2023-01-10T09:12:46.348Z,22.5
2023-01-10T09:13:46.559Z,22.5
2023-01-10T09:14:46.510Z,22.5
2023-01-10T09:15:47.850Z,22.5
2023-01-10T09:16:48.264Z,22.5
2023-01-10T09:17:48.276Z,22.5
2023-01-10T09:18:48.282Z,22.5
2023-01-10T09:19:49.823Z,28.13
2023-01-10T09:20:49.776Z,28.13
2023-01-10T09:21:50.997Z,28.13
2023-01-10T09:22:51.651Z,28.13
2023-01-10T09:23:53.970Z,28.13
2023-01-10T09:24:53.251Z,33.75
2023-01-10T09:25:53.923Z,33.75
2023-01-10T09:26:54.877Z,33.75
2023-01-10T09:27:56.283Z,33.75
2023-01-10T09:28:59.870Z,33.75
2023-01-10T09:29:56.804Z,33.75
2023-01-10T09:30:56.776Z,33.75
2023-01-10T09:31:58.291Z,33.75
2023-01-10T09:32:58.231Z,33.75
2023-01-10T09:34:03.374Z,33.75
2023-01-10T09:35:00.357Z,33.75
2023-01-10T09:36:00.937Z,33.75
2023-01-10T09:37:00.841Z,28.13
2023-01-10T09:38:02.136Z,28.13
2023-01-10T09:39:02.455Z,22.5
2023-01-10T09:40:02.446Z,22.5
2023-01-10T09:41:03.701Z,22.5
2023-01-10T09:42:03.670Z,22.5
2023-01-10T09:43:04.944Z,28.13
2023-01-10T09:44:06.977Z,22.5
2023-01-10T09:45:05.914Z,22.5
2023-01-10T09:46:07.434Z,22.5
2023-01-10T09:47:22.347Z,22.5
2023-01-10T09:48:11.061Z,22.5
2023-01-10T09:49:10.991Z,22.5
2023-01-10T09:50:11.411Z,22.5
2023-01-10T09:51:11.944Z,22.5
2023-01-10T09:52:13.930Z,22.5
2023-01-10T09:53:12.422Z,22.5
2023-01-10T09:54:26.379Z,22.5
2023-01-10T09:55:12.998Z,22.5
2023-01-10T09:56:13.535Z,22.5
2023-01-10T09:57:14.253Z,22.5
2023-01-10T09:58:14.888Z,22.5
2023-01-10T09:59:15.464Z,28.13
2023-01-10T10:00:15.846Z,28.13
2023-01-10T10:01:16.495Z,28.13
2023-01-10T10:02:17.095Z,28.13
2023-01-10T10:03:17.968Z,33.75
2023-01-10T10:04:18.767Z,33.75
2023-01-10T10:05:19.333Z,33.75
2023-01-10T10:06:28.799Z,33.75
2023-01-10T10:07:20.293Z,33.75
2023-01-10T10:08:20.344Z,39.38
2023-01-10T10:09:22.022Z,39.38
2023-01-10T10:10:21.295Z,39.38
2023-01-10T10:11:21.506Z,39.38
2023-01-10T10:12:21.755Z,39.38
2023-01-10T10:13:37.828Z,39.38
2023-01-10T10:14:23.057Z,45
2023-01-10T10:15:23.347Z,50.63
2023-01-10T10:16:23.841Z,56.25
2023-01-10T10:17:24.395Z,56.25
2023-01-10T10:18:24.470Z,56.25
2023-01-10T10:19:25.707Z,56.25
2023-01-10T10:20:25.968Z,56.25
2023-01-10T10:21:25.891Z,56.25
2023-01-10T10:22:28.244Z,61.88
2023-01-10T10:23:27.760Z,61.88
2023-01-10T10:24:27.969Z,56.25
2023-01-10T10:25:27.672Z,61.88
2023-01-10T10:26:28.321Z,61.88
2023-01-10T10:27:29.891Z,61.88
2023-01-10T10:28:30.259Z,56.25
2023-01-10T10:29:29.910Z,50.63
2023-01-10T10:30:31.428Z,50.63
2023-01-10T10:31:32.238Z,50.63
2023-01-10T10:32:32.483Z,50.63
2023-01-10T10:33:32.129Z,50.63
2023-01-10T10:34:33.049Z,56.25
2023-01-10T10:35:33.382Z,56.25
2023-01-10T10:36:34.045Z,56.25
2023-01-10T10:37:35.267Z,56.25
2023-01-10T10:38:36.290Z,50.63
2023-01-10T10:39:36.849Z,50.63
2023-01-10T10:40:37.143Z,50.63
2023-01-10T10:41:37.387Z,50.63
2023-01-10T10:42:37.063Z,50.63
2023-01-10T10:43:38.630Z,56.25
2023-01-10T10:44:38.349Z,67.5
2023-01-10T10:45:42.113Z,84.38
2023-01-10T10:46:40.384Z,95.63
2023-01-10T10:47:40.745Z,101.25
2023-01-10T10:48:40.869Z,84.38
2023-01-10T10:49:42.385Z,73.13
2023-01-10T10:50:42.936Z,67.5
2023-01-10T10:51:43.176Z,56.25
2023-01-10T10:52:44.500Z,50.63
2023-01-10T10:53:44.856Z,50.63
2023-01-10T10:54:47.589Z,56.25
2023-01-10T10:55:45.929Z,67.5
2023-01-10T10:56:46.873Z,61.88
2023-01-10T10:58:01.136Z,50.63
2023-01-10T10:58:49.031Z,45
2023-01-10T10:59:49.252Z,39.38
2023-01-10T11:00:50.340Z,39.38
2023-01-10T11:01:52.039Z,39.38
2023-01-10T11:02:51.476Z,39.38
2023-01-10T11:03:52.433Z,39.38
2023-01-10T11:04:52.908Z,39.38
2023-01-10T11:05:52.926Z,39.38
2023-01-10T11:06:53.435Z,39.38
2023-01-10T11:07:53.973Z,39.38
2023-01-10T11:08:54.593Z,39.38
2023-01-10T11:09:56.065Z,39.38
2023-01-10T11:10:55.349Z,45
2023-01-10T11:11:56.317Z,45
2023-01-10T11:12:57.265Z,45
2023-01-10T11:13:57.555Z,45
2023-01-10T11:14:57.821Z,45
2023-01-10T11:16:01.238Z,45
2023-01-10T11:16:59.009Z,45
2023-01-10T11:17:58.999Z,45
2023-01-10T11:19:00.332Z,45
2023-01-10T11:20:00.871Z,45
2023-01-10T11:21:01.405Z,50.63
2023-01-10T11:22:01.327Z,56.25
2023-01-10T11:23:02.524Z,50.63
2023-01-10T11:24:02.440Z,56.25
2023-01-10T11:25:03.147Z,61.88
2023-01-10T11:26:04.418Z,73.13
2023-01-10T11:27:04.624Z,78.75
2023-01-10T11:28:04.564Z,73.13
2023-01-10T11:29:05.909Z,78.75
2023-01-10T11:30:05.851Z,135
2023-01-10T11:31:07.092Z,596.25
2023-01-10T11:32:07.671Z,534.38
2023-01-10T11:33:08.230Z,1271.25
2023-01-10T11:34:08.773Z,180
2023-01-10T11:35:08.995Z,135
2023-01-10T11:36:09.558Z,652.5
2023-01-10T11:37:09.490Z,573.75
2023-01-10T11:38:10.722Z,945
2023-01-10T11:39:11.760Z,163.13
2023-01-10T11:40:12.437Z,585
2023-01-10T11:41:12.993Z,360
2023-01-10T11:42:12.923Z,230.63
2023-01-10T11:43:16.007Z,230.63
2023-01-10T11:44:14.972Z,736.88
2023-01-10T11:45:15.487Z,1175.63
2023-01-10T11:46:16.541Z,736.88
2023-01-10T11:47:15.582Z,399.38
2023-01-10T11:48:18.497Z,230.63
2023-01-10T11:49:25.756Z,652.5
2023-01-10T11:50:27.012Z,601.88
2023-01-10T11:51:27.347Z,388.13
2023-01-10T11:52:28.292Z,1091.25
2023-01-10T11:53:28.233Z,1153.13
2023-01-10T11:54:28.930Z,928.13
2023-01-10T11:55:30.237Z,461.25
2023-01-10T11:56:31.741Z,1006.88
2023-01-10T11:57:32.260Z,388.13
2023-01-10T11:58:32.559Z,286.88
2023-01-10T11:59:32.737Z,703.13
2023-01-10T12:00:33.279Z,821.25
2023-01-10T12:01:33.396Z,331.88
2023-01-10T12:02:34.114Z,1057.5
2023-01-10T12:03:34.699Z,933.75
2023-01-10T12:04:34.638Z,219.38
2023-01-10T12:05:34.837Z,258.75
2023-01-10T12:06:35.091Z,196.88
2023-01-10T12:07:35.600Z,180
2023-01-10T12:08:35.812Z,230.63
2023-01-10T12:09:36.146Z,213.75
2023-01-10T12:10:37.728Z,230.63
2023-01-10T12:11:36.687Z,213.75
2023-01-10T12:12:37.347Z,123.75
2023-01-10T12:13:38.677Z,168.75
2023-01-10T12:14:38.976Z,106.88
2023-01-10T12:15:39.292Z,118.13
2023-01-10T12:16:39.817Z,135
2023-01-10T12:17:39.294Z,118.13
2023-01-10T12:18:40.549Z,118.13
2023-01-10T12:19:41.314Z,556.88
2023-01-10T12:20:42.538Z,163.13
2023-01-10T12:21:42.837Z,168.75
2023-01-10T12:22:43.060Z,151.88
2023-01-10T12:23:43.559Z,185.63
2023-01-10T12:24:43.822Z,275.63
2023-01-10T12:25:44.473Z,151.88
2023-01-10T12:26:44.992Z,180
2023-01-10T12:27:45.197Z,196.88
2023-01-10T12:28:45.830Z,298.13
2023-01-10T12:29:47.322Z,196.88
2023-01-10T12:30:47.831Z,163.13
2023-01-10T12:31:47.848Z,157.5
2023-01-10T12:32:49.359Z,157.5
2023-01-10T12:33:49.651Z,663.75
2023-01-10T12:34:49.919Z,320.63
2023-01-10T12:35:50.471Z,630
2023-01-10T12:36:50.456Z,523.13
2023-01-10T12:37:51.167Z,528.75
2023-01-10T12:38:52.103Z,630
2023-01-10T12:39:53.217Z,624.38
2023-01-10T12:40:55.323Z,624.38
2023-01-10T12:41:55.134Z,551.25
2023-01-10T12:42:55.077Z,500.63
2023-01-10T12:43:56.000Z,315
2023-01-10T12:44:57.532Z,534.38
2023-01-10T12:45:58.624Z,495
2023-01-10T12:47:25.251Z,438.75
2023-01-10T12:47:58.716Z,393.75
2023-01-10T12:48:59.246Z,365.63
2023-01-10T12:49:59.331Z,309.38
2023-01-10T12:51:00.291Z,292.5
2023-01-10T12:52:01.278Z,241.88
2023-01-10T12:53:01.194Z,348.75
2023-01-10T12:54:02.640Z,495
2023-01-10T12:55:03.069Z,714.38
2023-01-10T12:56:03.772Z,742.5
2023-01-10T12:57:06.345Z,461.25
2023-01-10T12:58:08.456Z,275.63
2023-01-10T12:59:05.169Z,337.5
2023-01-10T13:00:06.535Z,371.25
2023-01-10T13:01:06.966Z,320.63
2023-01-10T13:02:08.245Z,281.25
2023-01-10T13:03:07.898Z,309.38
2023-01-10T13:04:08.543Z,315
2023-01-10T13:05:08.500Z,365.63
2023-01-10T13:06:09.200Z,343.13
2023-01-10T13:07:10.614Z,123.75
2023-01-10T13:08:10.691Z,112.5
2023-01-10T13:09:11.137Z,112.5
2023-01-10T13:10:11.502Z,106.88
2023-01-10T13:11:11.992Z,106.88
2023-01-10T13:12:12.562Z,101.25
2023-01-10T13:13:12.801Z,95.63
2023-01-10T13:14:13.061Z,225
2023-01-10T13:15:13.329Z,174.38
2023-01-10T13:16:13.747Z,253.13
2023-01-10T13:17:13.739Z,129.38
2023-01-10T13:18:14.271Z,140.63
2023-01-10T13:19:14.848Z,84.38
2023-01-10T13:20:14.886Z,84.38
2023-01-10T13:21:15.102Z,90
2023-01-10T13:22:15.644Z,258.75
2023-01-10T13:23:15.725Z,241.88
2023-01-10T13:24:15.960Z,230.63
2023-01-10T13:25:16.226Z,275.63
2023-01-10T13:26:16.505Z,129.38
2023-01-10T13:27:17.480Z,73.13
2023-01-10T13:28:18.708Z,230.63
2023-01-10T13:29:18.632Z,180
2023-01-10T13:30:20.085Z,286.88
2023-01-10T13:31:20.905Z,67.5
2023-01-10T13:32:21.192Z,106.88
2023-01-10T13:33:21.191Z,78.75
2023-01-10T13:34:22.443Z,45
2023-01-10T13:35:22.674Z,45
2023-01-10T13:36:23.617Z,45
2023-01-10T13:37:24.180Z,56.25
2023-01-10T13:38:24.108Z,196.88
2023-01-10T13:39:25.039Z,45
2023-01-10T13:40:26.344Z,56.25
2023-01-10T13:41:26.284Z,50.63
2023-01-10T13:42:27.311Z,50.63
2023-01-10T13:43:28.533Z,61.88
2023-01-10T13:44:29.058Z,56.25
2023-01-10T13:45:29.098Z,78.75
2023-01-10T13:46:30.735Z,84.38
2023-01-10T13:47:30.949Z,174.38
2023-01-10T13:48:31.887Z,56.25
2023-01-10T13:49:33.213Z,140.63
2023-01-10T13:50:33.033Z,151.88
2023-01-10T13:51:34.285Z,225
2023-01-10T13:52:34.637Z,45
2023-01-10T13:53:34.579Z,73.13
2023-01-10T13:54:35.811Z,219.38
2023-01-10T13:55:36.049Z,39.38
2023-01-10T13:56:36.273Z,33.75
2023-01-10T13:57:39.495Z,33.75
2023-01-10T13:58:37.439Z,78.75
2023-01-10T13:59:37.842Z,202.5
2023-01-10T14:00:38.173Z,39.38
2023-01-10T14:01:38.914Z,39.38